sensor_id;sensor_type;location;lat;lon;timestamp;temperature;humidity
4356;DHT22;64374;51.482;7.408;2023-03-03T00:02:00;8.50;99.90
4356;DHT22;64374;51.482;7.408;2023-03-03T00:04:28;8.50;99.90
4356;DHT22;64374;51.482;7.408;2023-03-03T00:06:56;8.40;99.90
4356;DHT22;64374;51.482;7.408;2023-03-03T00:09:24;8.50;99.90
4356;DHT22;64374;51.482;7.408;2023-03-03T00:11:55;8.50;99.90
4356;DHT22;64374;51.482;7.408;2023-03-03T00:14:28;8.40;99.90
4356;DHT22;64374;51.482;7.408;2023-03-03T00:17:11;8.30;99.90
4356;DHT22;64374;51.482;7.408;2023-03-03T00:20:29;8.20;99.90
4356;DHT22;64374;51.482;7.408;2023-03-03T00:23:12;8.40;99.90
4356;DHT22;64374;51.482;7.408;2023-03-03T00:25:44;8.40;99.90
4356;DHT22;64374;51.482;7.408;2023-03-03T00:28:40;8.60;99.90
4356;DHT22;64374;51.482;7.408;2023-03-03T00:31:15;8.60;99.90
4356;DHT22;64374;51.482;7.408;2023-03-03T00:33:48;8.50;99.90
4356;DHT22;64374;51.482;7.408;2023-03-03T00:36:30;8.30;99.90
4356;DHT22;64374;51.482;7.408;2023-03-03T00:41:56;8.50;99.90
4356;DHT22;64374;51.482;7.408;2023-03-03T00:44:39;8.30;99.90
4356;DHT22;64374;51.482;7.408;2023-03-03T00:47:29;8.30;99.90
4356;DHT22;64374;51.482;7.408;2023-03-03T00:50:33;8.40;99.90
4356;DHT22;64374;51.482;7.408;2023-03-03T00:53:05;8.30;99.90
4356;DHT22;64374;51.482;7.408;2023-03-03T00:55:34;8.40;99.90
4356;DHT22;64374;51.482;7.408;2023-03-03T00:58:03;8.10;99.90
4356;DHT22;64374;51.482;7.408;2023-03-03T01:00:36;8.00;99.90
4356;DHT22;64374;51.482;7.408;2023-03-03T01:03:09;7.80;99.90
4356;DHT22;64374;51.482;7.408;2023-03-03T01:05:41;7.70;99.90
4356;DHT22;64374;51.482;7.408;2023-03-03T01:08:10;7.80;99.90
4356;DHT22;64374;51.482;7.408;2023-03-03T01:10:41;7.70;99.90
4356;DHT22;64374;51.482;7.408;2023-03-03T01:13:12;7.60;99.90
4356;DHT22;64374;51.482;7.408;2023-03-03T01:15:43;7.50;99.90
4356;DHT22;64374;51.482;7.408;2023-03-03T01:18:14;7.50;99.90
4356;DHT22;64374;51.482;7.408;2023-03-03T01:20:44;7.70;99.90
4356;DHT22;64374;51.482;7.408;2023-03-03T01:23:12;7.70;99.90
4356;DHT22;64374;51.482;7.408;2023-03-03T01:25:40;8.00;99.90
4356;DHT22;64374;51.482;7.408;2023-03-03T01:28:09;8.20;99.90
4356;DHT22;64374;51.482;7.408;2023-03-03T01:30:38;8.10;99.90
4356;DHT22;64374;51.482;7.408;2023-03-03T01:33:06;8.10;99.90
4356;DHT22;64374;51.482;7.408;2023-03-03T01:35:34;8.10;99.90
4356;DHT22;64374;51.482;7.408;2023-03-03T01:38:04;8.20;99.90
4356;DHT22;64374;51.482;7.408;2023-03-03T01:40:33;8.00;99.90
4356;DHT22;64374;51.482;7.408;2023-03-03T01:43:02;7.80;99.90
4356;DHT22;64374;51.482;7.408;2023-03-03T01:45:32;7.90;99.90
4356;DHT22;64374;51.482;7.408;2023-03-03T01:48:13;7.90;99.90
4356;DHT22;64374;51.482;7.408;2023-03-03T01:50:46;7.80;99.90
4356;DHT22;64374;51.482;7.408;2023-03-03T01:53:20;7.90;99.90
4356;DHT22;64374;51.482;7.408;2023-03-03T01:55:51;8.00;99.90
4356;DHT22;64374;51.482;7.408;2023-03-03T01:58:24;8.10;99.90
4356;DHT22;64374;51.482;7.408;2023-03-03T02:00:59;8.20;99.90
4356;DHT22;64374;51.482;7.408;2023-03-03T02:03:33;8.10;99.90
4356;DHT22;64374;51.482;7.408;2023-03-03T02:06:06;8.20;99.90
4356;DHT22;64374;51.482;7.408;2023-03-03T02:08:41;8.10;99.90
4356;DHT22;64374;51.482;7.408;2023-03-03T02:11:13;7.90;99.90
4356;DHT22;64374;51.482;7.408;2023-03-03T02:13:43;7.80;99.90
4356;DHT22;64374;51.482;7.408;2023-03-03T02:16:11;7.90;99.90
4356;DHT22;64374;51.482;7.408;2023-03-03T02:18:40;7.80;99.90
4356;DHT22;64374;51.482;7.408;2023-03-03T02:21:11;7.90;99.90
4356;DHT22;64374;51.482;7.408;2023-03-03T02:23:47;7.80;99.90
4356;DHT22;64374;51.482;7.408;2023-03-03T02:26:23;7.90;99.90
4356;DHT22;64374;51.482;7.408;2023-03-03T02:28:57;7.90;99.90
4356;DHT22;64374;51.482;7.408;2023-03-03T02:31:29;8.10;99.90
4356;DHT22;64374;51.482;7.408;2023-03-03T02:34:00;8.10;99.90
4356;DHT22;64374;51.482;7.408;2023-03-03T02:36:30;8.00;99.90
4356;DHT22;64374;51.482;7.408;2023-03-03T02:39:02;8.00;99.90
4356;DHT22;64374;51.482;7.408;2023-03-03T02:41:37;7.90;99.90
4356;DHT22;64374;51.482;7.408;2023-03-03T02:44:09;8.00;99.90
4356;DHT22;64374;51.482;7.408;2023-03-03T02:46:40;8.10;99.90
4356;DHT22;64374;51.482;7.408;2023-03-03T02:49:11;7.90;99.90
4356;DHT22;64374;51.482;7.408;2023-03-03T02:51:41;7.80;99.90
4356;DHT22;64374;51.482;7.408;2023-03-03T02:54:11;8.00;99.90
4356;DHT22;64374;51.482;7.408;2023-03-03T02:56:42;7.90;99.90
4356;DHT22;64374;51.482;7.408;2023-03-03T02:59:11;7.80;99.90
4356;DHT22;64374;51.482;7.408;2023-03-03T03:01:45;7.90;99.90
4356;DHT22;64374;51.482;7.408;2023-03-03T03:04:19;7.60;99.90
4356;DHT22;64374;51.482;7.408;2023-03-03T03:06:50;7.80;99.90
4356;DHT22;64374;51.482;7.408;2023-03-03T03:09:24;7.80;99.90
4356;DHT22;64374;51.482;7.408;2023-03-03T03:11:56;7.80;99.90
4356;DHT22;64374;51.482;7.408;2023-03-03T03:14:25;7.80;99.90
4356;DHT22;64374;51.482;7.408;2023-03-03T03:16:55;7.80;99.90
4356;DHT22;64374;51.482;7.408;2023-03-03T03:19:26;7.70;99.90
4356;DHT22;64374;51.482;7.408;2023-03-03T03:21:59;7.70;99.90
4356;DHT22;64374;51.482;7.408;2023-03-03T03:24:29;7.70;99.90
4356;DHT22;64374;51.482;7.408;2023-03-03T03:27:03;7.80;99.90
4356;DHT22;64374;51.482;7.408;2023-03-03T03:29:32;7.80;99.90
4356;DHT22;64374;51.482;7.408;2023-03-03T03:32:00;7.90;99.90
4356;DHT22;64374;51.482;7.408;2023-03-03T03:34:32;7.80;99.90
4356;DHT22;64374;51.482;7.408;2023-03-03T03:37:02;7.70;99.90
4356;DHT22;64374;51.482;7.408;2023-03-03T03:39:31;7.70;99.90
4356;DHT22;64374;51.482;7.408;2023-03-03T03:42:00;7.80;99.90
4356;DHT22;64374;51.482;7.408;2023-03-03T03:44:30;7.80;99.90
4356;DHT22;64374;51.482;7.408;2023-03-03T03:46:59;8.00;99.90
4356;DHT22;64374;51.482;7.408;2023-03-03T03:49:30;8.00;99.90
4356;DHT22;64374;51.482;7.408;2023-03-03T03:51:59;7.90;99.90
4356;DHT22;64374;51.482;7.408;2023-03-03T03:54:31;8.00;99.90
4356;DHT22;64374;51.482;7.408;2023-03-03T03:57:00;8.20;99.90
4356;DHT22;64374;51.482;7.408;2023-03-03T03:59:31;8.00;99.90
4356;DHT22;64374;51.482;7.408;2023-03-03T04:01:59;8.00;99.90
4356;DHT22;64374;51.482;7.408;2023-03-03T04:04:28;8.00;99.90
4356;DHT22;64374;51.482;7.408;2023-03-03T04:07:20;8.00;99.90
4356;DHT22;64374;51.482;7.408;2023-03-03T04:09:49;7.60;99.90
4356;DHT22;64374;51.482;7.408;2023-03-03T04:12:18;7.50;99.90
4356;DHT22;64374;51.482;7.408;2023-03-03T04:14:51;7.70;99.90
4356;DHT22;64374;51.482;7.408;2023-03-03T04:17:22;7.80;99.90
4356;DHT22;64374;51.482;7.408;2023-03-03T04:19:52;7.90;99.90
4356;DHT22;64374;51.482;7.408;2023-03-03T04:22:21;8.00;99.90
4356;DHT22;64374;51.482;7.408;2023-03-03T04:24:50;7.80;99.90
4356;DHT22;64374;51.482;7.408;2023-03-03T04:27:18;7.80;99.90
4356;DHT22;64374;51.482;7.408;2023-03-03T04:29:47;8.00;99.90
4356;DHT22;64374;51.482;7.408;2023-03-03T04:32:18;8.00;99.90
4356;DHT22;64374;51.482;7.408;2023-03-03T04:34:46;8.10;99.90
4356;DHT22;64374;51.482;7.408;2023-03-03T04:37:37;8.00;99.90
4356;DHT22;64374;51.482;7.408;2023-03-03T04:40:11;7.90;99.90
4356;DHT22;64374;51.482;7.408;2023-03-03T04:42:45;7.90;99.90
4356;DHT22;64374;51.482;7.408;2023-03-03T04:45:13;7.80;99.90
4356;DHT22;64374;51.482;7.408;2023-03-03T04:47:45;8.00;99.90
4356;DHT22;64374;51.482;7.408;2023-03-03T04:50:16;7.80;99.90
4356;DHT22;64374;51.482;7.408;2023-03-03T04:52:45;7.60;99.90
4356;DHT22;64374;51.482;7.408;2023-03-03T04:55:14;7.70;99.90
4356;DHT22;64374;51.482;7.408;2023-03-03T04:57:46;7.50;99.90
4356;DHT22;64374;51.482;7.408;2023-03-03T05:00:16;7.40;99.90
4356;DHT22;64374;51.482;7.408;2023-03-03T05:02:47;7.50;99.90
4356;DHT22;64374;51.482;7.408;2023-03-03T05:05:16;7.70;99.90
4356;DHT22;64374;51.482;7.408;2023-03-03T05:07:44;7.80;99.90
4356;DHT22;64374;51.482;7.408;2023-03-03T05:10:13;7.70;99.90
4356;DHT22;64374;51.482;7.408;2023-03-03T05:12:42;7.50;99.90
4356;DHT22;64374;51.482;7.408;2023-03-03T05:15:11;7.60;99.90
4356;DHT22;64374;51.482;7.408;2023-03-03T05:17:39;7.80;99.90
4356;DHT22;64374;51.482;7.408;2023-03-03T05:20:11;7.80;99.90
4356;DHT22;64374;51.482;7.408;2023-03-03T05:22:40;7.80;99.90
4356;DHT22;64374;51.482;7.408;2023-03-03T05:25:09;7.80;99.90
4356;DHT22;64374;51.482;7.408;2023-03-03T05:27:38;7.80;99.90
4356;DHT22;64374;51.482;7.408;2023-03-03T05:30:08;7.60;99.90
4356;DHT22;64374;51.482;7.408;2023-03-03T05:32:38;7.70;99.90
4356;DHT22;64374;51.482;7.408;2023-03-03T05:35:09;7.80;99.90
4356;DHT22;64374;51.482;7.408;2023-03-03T05:37:37;7.80;99.90
4356;DHT22;64374;51.482;7.408;2023-03-03T05:40:11;7.70;99.90
4356;DHT22;64374;51.482;7.408;2023-03-03T05:42:40;7.50;99.90
4356;DHT22;64374;51.482;7.408;2023-03-03T05:45:09;7.60;99.90
4356;DHT22;64374;51.482;7.408;2023-03-03T05:47:38;7.40;99.90
4356;DHT22;64374;51.482;7.408;2023-03-03T05:50:09;7.60;99.90
4356;DHT22;64374;51.482;7.408;2023-03-03T05:52:38;7.50;99.90
4356;DHT22;64374;51.482;7.408;2023-03-03T05:55:07;7.50;99.90
4356;DHT22;64374;51.482;7.408;2023-03-03T05:57:36;7.50;99.90
4356;DHT22;64374;51.482;7.408;2023-03-03T06:00:10;7.60;99.90
4356;DHT22;64374;51.482;7.408;2023-03-03T06:02:40;7.50;99.90
4356;DHT22;64374;51.482;7.408;2023-03-03T06:05:10;7.60;99.90
4356;DHT22;64374;51.482;7.408;2023-03-03T06:07:38;7.60;99.90
4356;DHT22;64374;51.482;7.408;2023-03-03T06:10:09;7.80;99.90
4356;DHT22;64374;51.482;7.408;2023-03-03T06:12:41;7.90;99.90
4356;DHT22;64374;51.482;7.408;2023-03-03T06:15:11;8.00;99.90
4356;DHT22;64374;51.482;7.408;2023-03-03T06:17:40;7.90;99.90
4356;DHT22;64374;51.482;7.408;2023-03-03T06:20:11;8.00;99.90
4356;DHT22;64374;51.482;7.408;2023-03-03T06:22:42;7.90;99.90
4356;DHT22;64374;51.482;7.408;2023-03-03T06:25:10;7.80;99.90
4356;DHT22;64374;51.482;7.408;2023-03-03T06:27:38;7.70;99.90
4356;DHT22;64374;51.482;7.408;2023-03-03T06:30:11;7.40;99.90
4356;DHT22;64374;51.482;7.408;2023-03-03T06:32:42;7.50;99.90
4356;DHT22;64374;51.482;7.408;2023-03-03T06:35:12;7.40;99.90
4356;DHT22;64374;51.482;7.408;2023-03-03T06:37:45;7.40;99.90
4356;DHT22;64374;51.482;7.408;2023-03-03T06:40:14;7.30;99.90
4356;DHT22;64374;51.482;7.408;2023-03-03T06:42:42;7.40;99.90
4356;DHT22;64374;51.482;7.408;2023-03-03T06:45:11;7.40;99.90
4356;DHT22;64374;51.482;7.408;2023-03-03T06:47:39;7.50;99.90
4356;DHT22;64374;51.482;7.408;2023-03-03T06:50:09;7.50;99.90
4356;DHT22;64374;51.482;7.408;2023-03-03T06:52:42;7.70;99.90
4356;DHT22;64374;51.482;7.408;2023-03-03T06:55:12;7.60;99.90
4356;DHT22;64374;51.482;7.408;2023-03-03T06:57:45;7.60;99.90
4356;DHT22;64374;51.482;7.408;2023-03-03T07:00:17;7.90;99.90
4356;DHT22;64374;51.482;7.408;2023-03-03T07:02:46;7.70;99.90
4356;DHT22;64374;51.482;7.408;2023-03-03T07:05:16;7.60;99.90
4356;DHT22;64374;51.482;7.408;2023-03-03T07:07:46;7.40;99.90
4356;DHT22;64374;51.482;7.408;2023-03-03T07:10:21;7.40;99.90
4356;DHT22;64374;51.482;7.408;2023-03-03T07:12:49;7.50;99.90
4356;DHT22;64374;51.482;7.408;2023-03-03T07:15:21;7.40;99.90
4356;DHT22;64374;51.482;7.408;2023-03-03T07:17:54;7.50;99.90
4356;DHT22;64374;51.482;7.408;2023-03-03T07:20:27;7.60;99.90
4356;DHT22;64374;51.482;7.408;2023-03-03T07:22:58;7.80;99.90
4356;DHT22;64374;51.482;7.408;2023-03-03T07:25:30;7.70;99.90
4356;DHT22;64374;51.482;7.408;2023-03-03T07:28:10;7.50;99.90
4356;DHT22;64374;51.482;7.408;2023-03-03T07:30:39;7.60;99.90
4356;DHT22;64374;51.482;7.408;2023-03-03T07:33:21;7.50;99.90
4356;DHT22;64374;51.482;7.408;2023-03-03T07:35:52;7.40;99.90
4356;DHT22;64374;51.482;7.408;2023-03-03T07:38:33;7.40;99.90
4356;DHT22;64374;51.482;7.408;2023-03-03T07:41:04;7.50;99.90
4356;DHT22;64374;51.482;7.408;2023-03-03T07:43:36;7.50;99.90
4356;DHT22;64374;51.482;7.408;2023-03-03T07:46:24;7.40;99.90
4356;DHT22;64374;51.482;7.408;2023-03-03T07:48:55;7.20;99.90
4356;DHT22;64374;51.482;7.408;2023-03-03T07:51:27;7.40;99.90
4356;DHT22;64374;51.482;7.408;2023-03-03T07:54:17;7.30;99.90
4356;DHT22;64374;51.482;7.408;2023-03-03T07:56:48;7.70;99.90
4356;DHT22;64374;51.482;7.408;2023-03-03T07:59:21;7.50;99.90
4356;DHT22;64374;51.482;7.408;2023-03-03T08:01:51;7.50;99.90
4356;DHT22;64374;51.482;7.408;2023-03-03T08:04:27;7.40;99.90
4356;DHT22;64374;51.482;7.408;2023-03-03T08:06:58;7.50;99.90
4356;DHT22;64374;51.482;7.408;2023-03-03T08:09:55;7.60;99.90
4356;DHT22;64374;51.482;7.408;2023-03-03T08:12:37;7.50;99.90
4356;DHT22;64374;51.482;7.408;2023-03-03T08:15:30;7.50;99.90
4356;DHT22;64374;51.482;7.408;2023-03-03T08:18:15;7.50;99.90
4356;DHT22;64374;51.482;7.408;2023-03-03T08:20:49;7.70;99.90
4356;DHT22;64374;51.482;7.408;2023-03-03T08:23:20;7.70;99.90
4356;DHT22;64374;51.482;7.408;2023-03-03T08:25:52;7.70;99.90
4356;DHT22;64374;51.482;7.408;2023-03-03T08:28:21;7.60;99.90
4356;DHT22;64374;51.482;7.408;2023-03-03T08:30:50;7.70;99.90
4356;DHT22;64374;51.482;7.408;2023-03-03T08:33:32;7.70;99.90
4356;DHT22;64374;51.482;7.408;2023-03-03T08:36:01;7.40;99.90
4356;DHT22;64374;51.482;7.408;2023-03-03T08:38:29;7.40;99.90
4356;DHT22;64374;51.482;7.408;2023-03-03T08:40:58;7.40;99.90
4356;DHT22;64374;51.482;7.408;2023-03-03T08:43:27;7.30;99.90
4356;DHT22;64374;51.482;7.408;2023-03-03T08:45:59;7.50;99.90
4356;DHT22;64374;51.482;7.408;2023-03-03T08:48:28;7.30;99.90
4356;DHT22;64374;51.482;7.408;2023-03-03T08:50:57;7.40;99.90
4356;DHT22;64374;51.482;7.408;2023-03-03T08:53:27;7.50;99.90
4356;DHT22;64374;51.482;7.408;2023-03-03T08:56:01;7.50;99.90
4356;DHT22;64374;51.482;7.408;2023-03-03T08:58:29;7.50;99.90
4356;DHT22;64374;51.482;7.408;2023-03-03T09:01:03;7.60;99.90
4356;DHT22;64374;51.482;7.408;2023-03-03T09:03:32;7.80;99.90
4356;DHT22;64374;51.482;7.408;2023-03-03T09:06:00;7.90;99.90
4356;DHT22;64374;51.482;7.408;2023-03-03T09:08:29;7.80;99.90
4356;DHT22;64374;51.482;7.408;2023-03-03T09:10:57;7.80;99.90
4356;DHT22;64374;51.482;7.408;2023-03-03T09:13:29;7.80;99.90
4356;DHT22;64374;51.482;7.408;2023-03-03T09:15:57;7.70;99.90
4356;DHT22;64374;51.482;7.408;2023-03-03T09:18:30;7.70;99.90
4356;DHT22;64374;51.482;7.408;2023-03-03T09:20:59;7.70;99.90
4356;DHT22;64374;51.482;7.408;2023-03-03T09:23:33;7.80;99.90
4356;DHT22;64374;51.482;7.408;2023-03-03T09:26:21;7.90;99.90
4356;DHT22;64374;51.482;7.408;2023-03-03T09:28:57;7.60;99.90
4356;DHT22;64374;51.482;7.408;2023-03-03T09:31:30;7.80;99.90
4356;DHT22;64374;51.482;7.408;2023-03-03T09:34:15;7.80;99.90
4356;DHT22;64374;51.482;7.408;2023-03-03T09:36:43;7.80;99.90
4356;DHT22;64374;51.482;7.408;2023-03-03T09:39:17;7.70;99.90
4356;DHT22;64374;51.482;7.408;2023-03-03T09:45:08;7.60;99.90
4356;DHT22;64374;51.482;7.408;2023-03-03T09:47:46;7.60;99.90
4356;DHT22;64374;51.482;7.408;2023-03-03T09:50:29;7.60;99.90
4356;DHT22;64374;51.482;7.408;2023-03-03T09:53:16;7.50;99.90
4356;DHT22;64374;51.482;7.408;2023-03-03T09:55:49;7.40;99.90
4356;DHT22;64374;51.482;7.408;2023-03-03T09:58:35;7.50;99.90
4356;DHT22;64374;51.482;7.408;2023-03-03T10:01:26;7.60;99.90
4356;DHT22;64374;51.482;7.408;2023-03-03T10:04:19;7.70;99.90
4356;DHT22;64374;51.482;7.408;2023-03-03T10:07:14;7.70;99.90
4356;DHT22;64374;51.482;7.408;2023-03-03T10:10:16;7.70;99.90
4356;DHT22;64374;51.482;7.408;2023-03-03T10:12:56;7.80;99.90
4356;DHT22;64374;51.482;7.408;2023-03-03T10:15:31;8.00;99.90
4356;DHT22;64374;51.482;7.408;2023-03-03T10:18:14;7.80;99.90
4356;DHT22;64374;51.482;7.408;2023-03-03T10:20:55;7.80;99.90
4356;DHT22;64374;51.482;7.408;2023-03-03T10:26:28;7.80;99.90
4356;DHT22;64374;51.482;7.408;2023-03-03T10:29:26;7.80;99.90
4356;DHT22;64374;51.482;7.408;2023-03-03T10:32:31;7.80;99.90
4356;DHT22;64374;51.482;7.408;2023-03-03T10:35:38;7.90;99.90
4356;DHT22;64374;51.482;7.408;2023-03-03T10:38:57;8.00;99.90
4356;DHT22;64374;51.482;7.408;2023-03-03T10:41:39;8.10;99.90
4356;DHT22;64374;51.482;7.408;2023-03-03T10:44:27;8.10;99.90
4356;DHT22;64374;51.482;7.408;2023-03-03T10:47:12;8.20;99.90
4356;DHT22;64374;51.482;7.408;2023-03-03T10:49:55;8.20;99.90
4356;DHT22;64374;51.482;7.408;2023-03-03T10:52:36;8.30;99.90
4356;DHT22;64374;51.482;7.408;2023-03-03T10:58:27;8.10;99.90
4356;DHT22;64374;51.482;7.408;2023-03-03T11:01:07;8.20;99.90
4356;DHT22;64374;51.482;7.408;2023-03-03T11:04:06;8.10;99.90
4356;DHT22;64374;51.482;7.408;2023-03-03T11:06:44;8.20;99.90
4356;DHT22;64374;51.482;7.408;2023-03-03T11:09:33;7.90;99.90
4356;DHT22;64374;51.482;7.408;2023-03-03T11:12:18;7.90;99.90
4356;DHT22;64374;51.482;7.408;2023-03-03T11:15:02;8.10;99.90
4356;DHT22;64374;51.482;7.408;2023-03-03T11:17:53;7.90;99.90
4356;DHT22;64374;51.482;7.408;2023-03-03T11:20:32;7.70;99.90
4356;DHT22;64374;51.482;7.408;2023-03-03T11:23:17;7.80;99.90
4356;DHT22;64374;51.482;7.408;2023-03-03T11:25:56;8.10;99.90
4356;DHT22;64374;51.482;7.408;2023-03-03T11:28:41;8.20;99.90
4356;DHT22;64374;51.482;7.408;2023-03-03T11:31:20;8.20;99.90
4356;DHT22;64374;51.482;7.408;2023-03-03T11:34:00;8.30;99.90
4356;DHT22;64374;51.482;7.408;2023-03-03T11:36:37;8.30;99.90
4356;DHT22;64374;51.482;7.408;2023-03-03T11:39:09;8.60;99.90
4356;DHT22;64374;51.482;7.408;2023-03-03T11:41:41;8.50;99.90
4356;DHT22;64374;51.482;7.408;2023-03-03T11:44:35;8.30;99.90
4356;DHT22;64374;51.482;7.408;2023-03-03T11:47:11;8.40;99.90
4356;DHT22;64374;51.482;7.408;2023-03-03T11:49:49;8.80;99.90
4356;DHT22;64374;51.482;7.408;2023-03-03T11:52:28;8.80;99.90
4356;DHT22;64374;51.482;7.408;2023-03-03T11:55:01;8.80;99.90
4356;DHT22;64374;51.482;7.408;2023-03-03T11:57:39;8.50;99.90
4356;DHT22;64374;51.482;7.408;2023-03-03T12:00:30;8.40;99.90
4356;DHT22;64374;51.482;7.408;2023-03-03T12:03:15;8.30;99.90
4356;DHT22;64374;51.482;7.408;2023-03-03T12:05:55;8.40;99.90
4356;DHT22;64374;51.482;7.408;2023-03-03T12:08:44;8.20;99.90
4356;DHT22;64374;51.482;7.408;2023-03-03T12:11:19;8.30;99.90
4356;DHT22;64374;51.482;7.408;2023-03-03T12:13:57;8.50;99.90
4356;DHT22;64374;51.482;7.408;2023-03-03T12:16:42;8.60;99.90
4356;DHT22;64374;51.482;7.408;2023-03-03T12:19:26;8.70;99.90
4356;DHT22;64374;51.482;7.408;2023-03-03T12:25:17;8.50;99.90
4356;DHT22;64374;51.482;7.408;2023-03-03T12:27:51;8.70;99.90
4356;DHT22;64374;51.482;7.408;2023-03-03T12:33:27;8.70;99.90
4356;DHT22;64374;51.482;7.408;2023-03-03T12:36:06;8.80;99.90
4356;DHT22;64374;51.482;7.408;2023-03-03T12:38:49;8.80;99.90
4356;DHT22;64374;51.482;7.408;2023-03-03T12:41:28;8.90;99.90
4356;DHT22;64374;51.482;7.408;2023-03-03T12:44:03;8.90;99.90
4356;DHT22;64374;51.482;7.408;2023-03-03T12:46:44;8.50;99.90
4356;DHT22;64374;51.482;7.408;2023-03-03T12:49:12;7.30;99.90
4356;DHT22;64374;51.482;7.408;2023-03-03T12:51:54;6.80;99.90
4356;DHT22;64374;51.482;7.408;2023-03-03T12:54:49;7.10;99.90
4356;DHT22;64374;51.482;7.408;2023-03-03T12:57:31;7.60;99.90
4356;DHT22;64374;51.482;7.408;2023-03-03T13:03:25;8.00;99.90
4356;DHT22;64374;51.482;7.408;2023-03-03T13:06:10;7.90;99.90
4356;DHT22;64374;51.482;7.408;2023-03-03T13:09:04;7.90;99.90
4356;DHT22;64374;51.482;7.408;2023-03-03T13:11:58;8.30;99.90
4356;DHT22;64374;51.482;7.408;2023-03-03T13:15:02;8.60;99.90
4356;DHT22;64374;51.482;7.408;2023-03-03T13:17:35;8.50;99.90
4356;DHT22;64374;51.482;7.408;2023-03-03T13:20:18;8.50;99.90
4356;DHT22;64374;51.482;7.408;2023-03-03T13:22:51;8.80;99.90
4356;DHT22;64374;51.482;7.408;2023-03-03T13:25:39;8.80;99.90
4356;DHT22;64374;51.482;7.408;2023-03-03T13:28:17;9.00;99.90
4356;DHT22;64374;51.482;7.408;2023-03-03T13:30:54;9.20;99.90
4356;DHT22;64374;51.482;7.408;2023-03-03T13:33:25;9.50;99.90
4356;DHT22;64374;51.482;7.408;2023-03-03T13:35:59;9.10;99.90
4356;DHT22;64374;51.482;7.408;2023-03-03T13:38:32;9.10;99.90
4356;DHT22;64374;51.482;7.408;2023-03-03T13:41:08;9.30;99.90
4356;DHT22;64374;51.482;7.408;2023-03-03T13:43:44;9.00;99.90
4356;DHT22;64374;51.482;7.408;2023-03-03T13:46:19;8.30;99.90
4356;DHT22;64374;51.482;7.408;2023-03-03T13:49:01;7.90;99.90
4356;DHT22;64374;51.482;7.408;2023-03-03T13:51:41;8.00;99.90
4356;DHT22;64374;51.482;7.408;2023-03-03T13:54:17;7.90;99.90
4356;DHT22;64374;51.482;7.408;2023-03-03T13:57:09;8.20;99.90
4356;DHT22;64374;51.482;7.408;2023-03-03T13:59:47;8.20;99.90
4356;DHT22;64374;51.482;7.408;2023-03-03T14:02:47;8.10;99.90
4356;DHT22;64374;51.482;7.408;2023-03-03T14:05:24;7.80;99.90
4356;DHT22;64374;51.482;7.408;2023-03-03T14:07:58;8.50;99.90
4356;DHT22;64374;51.482;7.408;2023-03-03T14:10:30;9.60;99.90
4356;DHT22;64374;51.482;7.408;2023-03-03T14:13:03;10.20;99.90
4356;DHT22;64374;51.482;7.408;2023-03-03T14:15:34;11.10;99.90
4356;DHT22;64374;51.482;7.408;2023-03-03T14:18:17;12.00;99.90
4356;DHT22;64374;51.482;7.408;2023-03-03T14:20:50;12.80;99.90
4356;DHT22;64374;51.482;7.408;2023-03-03T14:23:25;12.90;99.90
4356;DHT22;64374;51.482;7.408;2023-03-03T14:26:04;12.50;99.90
4356;DHT22;64374;51.482;7.408;2023-03-03T14:28:39;12.10;99.90
4356;DHT22;64374;51.482;7.408;2023-03-03T14:31:15;12.00;99.90
4356;DHT22;64374;51.482;7.408;2023-03-03T14:33:56;11.80;99.90
4356;DHT22;64374;51.482;7.408;2023-03-03T14:36:27;11.20;99.90
4356;DHT22;64374;51.482;7.408;2023-03-03T14:38:58;11.30;99.90
4356;DHT22;64374;51.482;7.408;2023-03-03T14:41:40;11.50;99.90
4356;DHT22;64374;51.482;7.408;2023-03-03T14:44:25;11.50;99.90
4356;DHT22;64374;51.482;7.408;2023-03-03T14:47:16;11.80;99.90
4356;DHT22;64374;51.482;7.408;2023-03-03T14:49:46;12.40;99.90
4356;DHT22;64374;51.482;7.408;2023-03-03T14:52:23;12.50;99.90
4356;DHT22;64374;51.482;7.408;2023-03-03T14:54:55;12.60;99.90
4356;DHT22;64374;51.482;7.408;2023-03-03T14:57:38;12.60;99.90
4356;DHT22;64374;51.482;7.408;2023-03-03T15:00:31;12.10;99.90
4356;DHT22;64374;51.482;7.408;2023-03-03T15:03:21;11.80;99.90
4356;DHT22;64374;51.482;7.408;2023-03-03T15:05:51;11.70;99.90
4356;DHT22;64374;51.482;7.408;2023-03-03T15:08:28;11.50;99.90
4356;DHT22;64374;51.482;7.408;2023-03-03T15:11:17;11.70;99.90
4356;DHT22;64374;51.482;7.408;2023-03-03T15:13:47;11.90;99.90
4356;DHT22;64374;51.482;7.408;2023-03-03T15:16:17;11.90;99.90
4356;DHT22;64374;51.482;7.408;2023-03-03T15:19:02;11.90;99.90
4356;DHT22;64374;51.482;7.408;2023-03-03T15:21:36;12.00;99.90
4356;DHT22;64374;51.482;7.408;2023-03-03T15:24:12;11.40;99.90
4356;DHT22;64374;51.482;7.408;2023-03-03T15:26:50;11.10;99.90
4356;DHT22;64374;51.482;7.408;2023-03-03T15:29:24;11.10;99.90
4356;DHT22;64374;51.482;7.408;2023-03-03T15:31:59;11.20;99.90
4356;DHT22;64374;51.482;7.408;2023-03-03T15:34:38;11.40;99.90
4356;DHT22;64374;51.482;7.408;2023-03-03T15:37:23;11.30;99.90
4356;DHT22;64374;51.482;7.408;2023-03-03T15:40:00;11.50;99.90
4356;DHT22;64374;51.482;7.408;2023-03-03T15:42:36;11.60;99.90
4356;DHT22;64374;51.482;7.408;2023-03-03T15:45:18;11.90;99.90
4356;DHT22;64374;51.482;7.408;2023-03-03T15:47:59;11.60;99.90
4356;DHT22;64374;51.482;7.408;2023-03-03T15:50:42;11.80;99.90
4356;DHT22;64374;51.482;7.408;2023-03-03T15:53:20;11.80;99.90
4356;DHT22;64374;51.482;7.408;2023-03-03T15:56:03;11.70;99.90
4356;DHT22;64374;51.482;7.408;2023-03-03T15:59:08;11.90;99.90
4356;DHT22;64374;51.482;7.408;2023-03-03T16:01:48;11.90;99.90
4356;DHT22;64374;51.482;7.408;2023-03-03T16:04:23;11.70;99.90
4356;DHT22;64374;51.482;7.408;2023-03-03T16:06:56;11.50;99.90
4356;DHT22;64374;51.482;7.408;2023-03-03T16:09:37;11.50;99.90
4356;DHT22;64374;51.482;7.408;2023-03-03T16:12:15;11.40;99.90
4356;DHT22;64374;51.482;7.408;2023-03-03T16:14:57;11.40;99.90
4356;DHT22;64374;51.482;7.408;2023-03-03T16:17:41;11.40;99.90
4356;DHT22;64374;51.482;7.408;2023-03-03T16:20:18;11.40;99.90
4356;DHT22;64374;51.482;7.408;2023-03-03T16:25:50;11.40;99.90
4356;DHT22;64374;51.482;7.408;2023-03-03T16:28:33;11.50;99.90
4356;DHT22;64374;51.482;7.408;2023-03-03T16:31:08;11.30;99.90
4356;DHT22;64374;51.482;7.408;2023-03-03T16:33:45;11.20;99.90
4356;DHT22;64374;51.482;7.408;2023-03-03T16:36:28;11.40;99.90
4356;DHT22;64374;51.482;7.408;2023-03-03T16:39:02;11.30;99.90
4356;DHT22;64374;51.482;7.408;2023-03-03T16:41:50;11.00;99.90
4356;DHT22;64374;51.482;7.408;2023-03-03T16:44:33;10.70;99.90
4356;DHT22;64374;51.482;7.408;2023-03-03T16:47:15;10.80;99.90
4356;DHT22;64374;51.482;7.408;2023-03-03T16:49:54;11.00;99.90
4356;DHT22;64374;51.482;7.408;2023-03-03T16:52:34;11.00;99.90
4356;DHT22;64374;51.482;7.408;2023-03-03T16:55:12;11.00;99.90
4356;DHT22;64374;51.482;7.408;2023-03-03T16:57:49;11.00;99.90
4356;DHT22;64374;51.482;7.408;2023-03-03T17:00:22;10.70;99.90
4356;DHT22;64374;51.482;7.408;2023-03-03T17:06:04;10.20;99.90
4356;DHT22;64374;51.482;7.408;2023-03-03T17:08:43;10.00;99.90
4356;DHT22;64374;51.482;7.408;2023-03-03T17:11:44;9.60;99.90
4356;DHT22;64374;51.482;7.408;2023-03-03T17:14:25;9.60;99.90
4356;DHT22;64374;51.482;7.408;2023-03-03T17:16:59;9.60;99.90
4356;DHT22;64374;51.482;7.408;2023-03-03T17:19:51;9.60;99.90
4356;DHT22;64374;51.482;7.408;2023-03-03T17:22:32;9.80;99.90
4356;DHT22;64374;51.482;7.408;2023-03-03T17:25:12;9.80;99.90